Time;durP1;ratioP1;P1;durP2;ratioP2;P2;SDS_P1;SDS_P2;PMS_P1;PMS_P2;Temp;Humidity;BMP_temperature;BMP_pressure;BME280_temperature;BME280_humidity;BME280_pressure;Samples;Min_cycle;Max_cycle;Signal;HPM_P1;HPM_P2
2022/10/23 00:01:31;;;;;;;24.50;14.57;;;12.30;99.90;;;;;;5036841;28;20042;-63
2022/10/23 00:04:00;;;;;;;23.77;14.23;;;12.20;99.90;;;;;;5043930;28;20033;-63
2022/10/23 00:06:27;;;;;;;23.92;14.43;;;12.20;99.90;;;;;;5049745;28;20055;-64
2022/10/23 00:08:53;;;;;;;20.17;14.20;;;12.20;99.90;;;;;;5039094;28;20045;-63
2022/10/23 00:11:23;;;;;;;21.48;14.88;;;12.20;99.90;;;;;;5050564;28;20029;-64
2022/10/23 00:13:49;;;;;;;22.23;14.65;;;12.20;99.90;;;;;;5048149;28;20053;-63
2022/10/23 00:16:15;;;;;;;20.45;14.45;;;12.20;99.90;;;;;;5043637;28;20036;-63
2022/10/23 00:18:41;;;;;;;23.85;15.05;;;12.20;99.90;;;;;;5035238;28;20033;-63
2022/10/23 00:21:10;;;;;;;20.65;14.38;;;12.10;99.90;;;;;;5041954;28;20075;-63
2022/10/23 00:23:35;;;;;;;21.55;13.93;;;12.20;99.90;;;;;;5046572;28;20091;-63
2022/10/23 00:26:03;;;;;;;18.80;13.73;;;12.20;99.90;;;;;;5042770;28;20048;-63
2022/10/23 00:28:28;;;;;;;22.50;14.25;;;12.10;99.90;;;;;;5048735;28;20299;-63
2022/10/23 00:30:54;;;;;;;22.13;13.57;;;12.20;99.90;;;;;;5051784;28;20312;-63
2022/10/23 00:33:20;;;;;;;23.23;13.20;;;12.10;99.90;;;;;;5045133;28;20491;-64
2022/10/23 00:35:45;;;;;;;21.63;13.60;;;12.10;99.90;;;;;;5035035;28;20033;-63
2022/10/23 00:38:11;;;;;;;21.48;13.80;;;12.10;99.90;;;;;;5040874;28;20032;-63
2022/10/23 00:40:38;;;;;;;18.67;13.10;;;12.10;99.90;;;;;;5046832;28;20041;-63
2022/10/23 00:43:12;;;;;;;17.85;12.35;;;12.20;99.90;;;;;;5042466;28;20037;-63
2022/10/23 00:45:37;;;;;;;18.13;12.45;;;12.10;99.90;;;;;;5039931;28;20044;-63
2022/10/23 00:48:03;;;;;;;20.83;12.68;;;12.10;99.90;;;;;;5039223;28;20036;-64
2022/10/23 00:50:31;;;;;;;20.70;12.95;;;12.10;99.90;;;;;;5046632;28;20044;-64
2022/10/23 00:53:00;;;;;;;19.55;12.23;;;12.10;99.90;;;;;;5042780;28;20492;-64
2022/10/23 00:55:28;;;;;;;21.40;11.27;;;12.20;99.90;;;;;;5049226;28;20048;-63
2022/10/23 00:57:54;;;;;;;18.83;10.98;;;12.20;99.90;;;;;;5044286;28;20052;-63
2022/10/23 01:00:24;;;;;;;20.33;12.27;;;12.10;99.90;;;;;;5040272;28;20491;-63
2022/10/23 01:02:51;;;;;;;14.90;11.32;;;12.20;99.90;;;;;;5047228;28;20045;-63
2022/10/23 01:05:20;;;;;;;17.08;12.32;;;12.10;99.90;;;;;;5048399;28;20033;-63
2022/10/23 01:08:04;;;;;;;21.35;12.90;;;12.10;99.90;;;;;;5048838;28;20250;-64
2022/10/23 01:10:36;;;;;;;17.05;11.02;;;12.10;99.90;;;;;;5040681;28;20323;-63
2022/10/23 01:13:13;;;;;;;17.55;11.27;;;12.10;99.90;;;;;;5045479;28;20128;-63
2022/10/23 01:15:48;;;;;;;22.98;11.20;;;12.10;99.90;;;;;;5046532;28;20436;-64
2022/10/23 01:18:25;;;;;;;18.40;11.30;;;12.10;99.90;;;;;;5036870;28;20108;-63
2022/10/23 01:21:08;;;;;;;15.60;11.13;;;12.00;99.90;;;;;;5040896;28;20040;-63
2022/10/23 01:23:39;;;;;;;20.45;11.30;;;12.00;99.90;;;;;;5035607;28;20119;-62
2022/10/23 01:26:17;;;;;;;14.85;10.35;;;12.00;99.90;;;;;;5037191;28;20391;-62
2022/10/23 01:28:58;;;;;;;14.52;10.57;;;12.00;99.90;;;;;;5040331;28;20082;-64
2022/10/23 01:31:34;;;;;;;16.77;10.70;;;12.00;99.90;;;;;;5045145;28;20048;-61
2022/10/23 01:34:10;;;;;;;18.75;10.30;;;11.90;99.90;;;;;;5033707;28;20095;-61
2022/10/23 01:36:40;;;;;;;16.25;10.23;;;11.80;99.90;;;;;;5036232;28;20040;-62
2022/10/23 01:39:17;;;;;;;16.92;10.57;;;11.90;99.90;;;;;;5047279;28;20500;-62
2022/10/23 01:41:45;;;;;;;17.15;10.35;;;12.00;99.90;;;;;;5042270;28;20037;-66
2022/10/23 01:44:18;;;;;;;16.23;11.15;;;11.90;99.90;;;;;;5044782;28;20376;-62
2022/10/23 01:46:47;;;;;;;15.50;10.15;;;11.90;99.90;;;;;;5032815;28;20053;-61
2022/10/23 01:49:14;;;;;;;20.17;10.57;;;11.90;99.90;;;;;;5048571;28;20043;-62
2022/10/23 01:51:44;;;;;;;16.52;10.63;;;11.80;99.90;;;;;;5038307;28;20048;-62
2022/10/23 01:54:12;;;;;;;17.30;10.63;;;11.80;99.90;;;;;;5041295;28;20037;-63
2022/10/23 01:56:42;;;;;;;17.52;11.25;;;11.80;99.90;;;;;;5048126;28;20037;-63
2022/10/23 01:59:13;;;;;;;16.70;11.02;;;11.90;99.90;;;;;;5049909;28;20131;-62
2022/10/23 02:01:42;;;;;;;14.95;10.52;;;11.80;99.90;;;;;;5040297;28;20040;-64
2022/10/23 02:04:11;;;;;;;19.48;10.80;;;11.80;99.90;;;;;;5036275;28;20496;-61
2022/10/23 02:06:37;;;;;;;15.38;10.07;;;11.80;99.90;;;;;;5038068;28;20048;-62
2022/10/23 02:09:04;;;;;;;13.80;10.02;;;11.70;99.90;;;;;;5041453;28;20033;-63
2022/10/23 02:11:36;;;;;;;14.77;10.50;;;11.80;99.90;;;;;;5045855;28;20171;-62
2022/10/23 02:14:12;;;;;;;16.23;10.07;;;11.70;99.90;;;;;;5041600;28;20135;-61
2022/10/23 02:16:51;;;;;;;17.45;10.80;;;11.70;99.90;;;;;;5044037;28;20033;-65
2022/10/23 02:19:45;;;;;;;13.90;10.32;;;11.70;99.90;;;;;;5040822;28;20048;-62
2022/10/23 02:22:25;;;;;;;17.95;10.07;;;11.80;99.90;;;;;;5037997;28;20369;-62
2022/10/23 02:25:20;;;;;;;20.33;9.82;;;11.70;99.90;;;;;;5045144;28;20160;-61
2022/10/23 02:27:55;;;;;;;17.48;10.95;;;11.70;99.90;;;;;;5043036;28;20098;-62
2022/10/23 02:30:21;;;;;;;19.30;9.90;;;11.80;99.90;;;;;;5047260;28;20041;-62
2022/10/23 02:32:51;;;;;;;22.30;10.20;;;11.70;99.90;;;;;;5047487;28;20548;-62
2022/10/23 02:35:18;;;;;;;15.52;10.40;;;11.70;99.90;;;;;;5039596;28;20048;-63
2022/10/23 02:37:52;;;;;;;17.10;10.07;;;11.70;99.90;;;;;;5039813;28;20044;-65
2022/10/23 02:40:18;;;;;;;16.90;10.80;;;11.70;99.90;;;;;;5033984;28;20124;-61
2022/10/23 02:42:53;;;;;;;16.48;10.85;;;11.70;99.90;;;;;;5038045;28;20115;-63
2022/10/23 02:45:33;;;;;;;15.20;10.70;;;11.70;99.90;;;;;;5037954;28;20067;-63
2022/10/23 02:48:08;;;;;;;14.63;10.50;;;11.70;99.90;;;;;;5049673;28;20032;-62
2022/10/23 02:51:18;;;;;;;15.93;11.07;;;11.70;99.90;;;;;;5042160;28;20135;-62
2022/10/23 02:53:58;;;;;;;17.50;10.93;;;11.70;99.90;;;;;;5026758;28;20381;-63
2022/10/23 02:56:46;;;;;;;18.63;10.85;;;11.60;99.90;;;;;;5035962;28;20128;-62
2022/10/23 02:59:20;;;;;;;14.63;9.60;;;11.70;99.90;;;;;;5042342;28;20033;-62
2022/10/23 03:01:51;;;;;;;14.27;10.50;;;11.70;99.90;;;;;;5048085;28;20037;-62
2022/10/23 03:04:20;;;;;;;17.60;10.93;;;11.90;99.90;;;;;;5041434;28;20052;-61
2022/10/23 03:06:45;;;;;;;18.15;11.13;;;11.70;99.90;;;;;;5037295;28;20044;-63
2022/10/23 03:09:11;;;;;;;24.23;12.15;;;11.70;99.90;;;;;;5043886;28;20064;-66
2022/10/23 03:11:37;;;;;;;18.92;11.90;;;11.60;99.90;;;;;;5051818;28;20033;-62
2022/10/23 03:14:02;;;;;;;18.70;12.43;;;11.60;99.90;;;;;;5039982;28;21756;-62
2022/10/23 03:16:31;;;;;;;18.58;12.93;;;11.70;99.90;;;;;;5038059;28;20120;-62
2022/10/23 03:18:56;;;;;;;20.58;12.82;;;11.70;99.90;;;;;;5038822;28;20123;-62
2022/10/23 03:21:22;;;;;;;16.73;11.48;;;11.70;99.90;;;;;;5042521;28;20163;-63
2022/10/23 03:23:48;;;;;;;20.27;12.38;;;11.70;99.90;;;;;;5046657;28;20116;-62
2022/10/23 03:26:13;;;;;;;23.52;13.07;;;11.70;99.90;;;;;;5043467;28;20048;-64
2022/10/23 03:28:39;;;;;;;17.70;11.75;;;11.70;99.90;;;;;;5046218;28;20295;-63
2022/10/23 03:31:05;;;;;;;19.15;11.70;;;11.70;99.90;;;;;;5046374;28;20043;-63
2022/10/23 03:33:31;;;;;;;21.13;12.85;;;11.70;99.90;;;;;;5044686;28;20037;-63
2022/10/23 03:35:57;;;;;;;19.65;12.25;;;11.70;99.90;;;;;;5051158;28;20025;-63
2022/10/23 03:38:22;;;;;;;17.13;11.93;;;11.70;99.90;;;;;;5048419;28;20087;-63
2022/10/23 03:40:48;;;;;;;21.38;12.23;;;11.60;99.90;;;;;;5040116;28;20037;-65
2022/10/23 03:43:14;;;;;;;21.55;12.05;;;11.60;99.90;;;;;;5039076;28;20071;-63
2022/10/23 03:45:39;;;;;;;22.17;12.38;;;11.60;99.90;;;;;;5042851;28;20391;-63
2022/10/23 03:48:06;;;;;;;19.30;12.15;;;11.60;99.90;;;;;;5039743;28;20037;-63
2022/10/23 03:50:32;;;;;;;18.15;11.95;;;11.60;99.90;;;;;;5046315;28;20033;-63
2022/10/23 03:52:58;;;;;;;18.35;12.90;;;11.70;99.90;;;;;;5044873;28;20033;-63
2022/10/23 03:55:25;;;;;;;19.42;11.90;;;11.70;99.90;;;;;;5052204;28;20479;-63
2022/10/23 03:57:52;;;;;;;20.52;12.25;;;11.70;99.90;;;;;;5047865;28;20106;-63
2022/10/23 04:00:17;;;;;;;17.70;11.77;;;11.70;99.90;;;;;;5037903;28;20029;-63
2022/10/23 04:02:43;;;;;;;21.90;11.60;;;11.60;99.90;;;;;;5043649;28;20044;-63
2022/10/23 04:05:09;;;;;;;17.58;11.68;;;11.70;99.90;;;;;;5051408;28;20534;-63
2022/10/23 04:07:35;;;;;;;22.73;12.60;;;11.70;99.90;;;;;;5043748;28;20052;-63
2022/10/23 04:10:01;;;;;;;17.08;11.38;;;11.70;99.90;;;;;;5046513;28;20108;-64
2022/10/23 04:12:26;;;;;;;18.92;11.73;;;11.70;99.90;;;;;;5043365;28;20555;-62
2022/10/23 04:14:52;;;;;;;18.77;11.70;;;11.70;99.90;;;;;;5047420;28;20038;-63
2022/10/23 04:17:17;;;;;;;19.90;11.40;;;11.70;99.90;;;;;;5047221;28;20383;-63
2022/10/23 04:19:43;;;;;;;19.88;11.55;;;11.70;99.90;;;;;;5040868;28;20037;-63
2022/10/23 04:22:08;;;;;;;19.15;11.93;;;11.70;99.90;;;;;;5052354;28;20407;-63
2022/10/23 04:24:34;;;;;;;17.73;11.95;;;11.70;99.90;;;;;;5043253;28;20045;-63
2022/10/23 04:27:00;;;;;;;18.92;11.93;;;11.70;99.90;;;;;;5047404;28;20041;-63
2022/10/23 04:29:27;;;;;;;18.65;11.25;;;11.60;99.90;;;;;;5050330;28;20529;-63
2022/10/23 04:31:53;;;;;;;19.30;11.52;;;11.70;99.90;;;;;;5033780;28;20183;-62
2022/10/23 04:34:18;;;;;;;17.58;11.60;;;11.70;99.90;;;;;;5037464;28;20112;-63
2022/10/23 04:36:44;;;;;;;22.73;11.55;;;11.70;99.90;;;;;;5048207;28;20062;-64
2022/10/23 04:39:09;;;;;;;17.63;11.30;;;11.70;99.90;;;;;;5035638;28;20124;-64
2022/10/23 04:41:37;;;;;;;21.30;10.82;;;11.70;99.90;;;;;;5038515;28;20040;-63
2022/10/23 04:44:03;;;;;;;20.50;12.10;;;11.70;99.90;;;;;;5040326;28;20142;-64
2022/10/23 04:46:29;;;;;;;19.20;10.70;;;11.70;99.90;;;;;;5045637;28;20083;-63
2022/10/23 04:48:54;;;;;;;18.52;10.48;;;11.70;99.90;;;;;;5050141;28;20045;-63
2022/10/23 04:51:20;;;;;;;21.15;11.45;;;11.70;99.90;;;;;;5045006;28;20046;-63
2022/10/23 04:53:46;;;;;;;21.75;12.27;;;11.60;99.90;;;;;;5047088;28;20499;-63
2022/10/23 04:56:15;;;;;;;18.73;11.07;;;11.70;99.90;;;;;;5041228;28;20048;-63
2022/10/23 04:58:41;;;;;;;17.25;10.88;;;11.70;99.90;;;;;;5043195;28;20408;-63
2022/10/23 05:01:09;;;;;;;19.95;11.18;;;11.60;99.90;;;;;;5039897;28;20060;-63
2022/10/23 05:03:35;;;;;;;18.70;10.93;;;11.60;99.90;;;;;;5047608;28;20073;-64
2022/10/23 05:06:01;;;;;;;14.57;10.38;;;11.60;99.90;;;;;;5045359;28;20058;-64
2022/10/23 05:08:27;;;;;;;20.85;11.32;;;11.60;99.90;;;;;;5044324;28;20492;-64
2022/10/23 05:10:53;;;;;;;19.67;10.85;;;11.60;99.90;;;;;;5041185;28;20041;-63
2022/10/23 05:13:19;;;;;;;19.50;10.50;;;11.60;99.90;;;;;;5044707;28;20080;-64
2022/10/23 05:15:49;;;;;;;19.42;10.90;;;11.60;99.90;;;;;;5039581;28;20055;-64
2022/10/23 05:18:25;;;;;;;18.20;11.00;;;11.60;99.90;;;;;;5037898;28;20037;-64
2022/10/23 05:20:55;;;;;;;18.70;10.93;;;11.60;99.90;;;;;;5041889;28;20076;-64
2022/10/23 05:23:23;;;;;;;19.73;10.95;;;11.50;99.90;;;;;;5042592;28;20036;-65
2022/10/23 05:25:48;;;;;;;16.58;10.45;;;11.60;99.90;;;;;;5048643;28;20303;-63
2022/10/23 05:28:14;;;;;;;17.83;10.68;;;11.50;99.90;;;;;;5044562;28;20116;-63
2022/10/23 05:30:41;;;;;;;15.45;10.18;;;11.60;99.90;;;;;;5041228;28;20064;-64
2022/10/23 05:33:09;;;;;;;17.88;10.27;;;11.60;99.90;;;;;;5042880;28;20060;-63
2022/10/23 05:35:35;;;;;;;17.17;10.32;;;11.60;99.90;;;;;;5039711;28;20078;-63
2022/10/23 05:38:01;;;;;;;20.23;10.70;;;11.60;99.90;;;;;;5046061;28;20519;-64
2022/10/23 05:40:27;;;;;;;17.65;10.32;;;11.60;99.90;;;;;;5038296;28;20439;-64
2022/10/23 05:42:53;;;;;;;15.02;9.85;;;11.50;99.90;;;;;;5049086;28;20036;-62
2022/10/23 05:45:18;;;;;;;20.40;10.50;;;11.50;99.90;;;;;;5039395;28;20071;-63
2022/10/23 05:47:45;;;;;;;16.15;10.15;;;11.50;99.90;;;;;;5050375;28;20037;-63
2022/10/23 05:50:11;;;;;;;19.30;11.15;;;11.50;99.90;;;;;;5047937;28;20151;-64
2022/10/23 05:52:36;;;;;;;17.67;10.55;;;11.50;99.90;;;;;;5043513;28;20556;-63
2022/10/23 05:55:02;;;;;;;16.90;11.50;;;11.50;99.90;;;;;;5048480;28;20041;-64
2022/10/23 05:57:31;;;;;;;19.00;10.88;;;11.50;99.90;;;;;;5047697;28;20120;-65
2022/10/23 05:59:57;;;;;;;16.25;10.35;;;11.60;99.90;;;;;;5046912;28;20036;-63
2022/10/23 06:02:23;;;;;;;18.92;12.02;;;11.60;99.90;;;;;;5047692;28;20435;-64
2022/10/23 06:04:48;;;;;;;18.25;11.55;;;11.50;99.90;;;;;;5048017;28;20048;-64
2022/10/23 06:07:14;;;;;;;19.48;10.75;;;11.50;99.90;;;;;;5045888;28;20098;-64
2022/10/23 06:09:39;;;;;;;19.15;10.77;;;11.50;99.90;;;;;;5044546;28;20040;-63
2022/10/23 06:12:05;;;;;;;19.35;11.45;;;11.50;99.90;;;;;;5045043;28;20037;-63
2022/10/23 06:14:34;;;;;;;17.73;11.43;;;11.50;99.90;;;;;;5045655;28;20045;-63
2022/10/23 06:16:59;;;;;;;18.90;11.40;;;11.60;99.90;;;;;;5044825;28;20032;-63
2022/10/23 06:19:25;;;;;;;20.27;11.00;;;11.60;99.90;;;;;;5045022;28;20483;-63
2022/10/23 06:21:50;;;;;;;15.95;10.32;;;11.50;99.90;;;;;;5040836;28;20044;-64
2022/10/23 06:24:16;;;;;;;16.63;10.55;;;11.60;99.90;;;;;;5041361;28;20534;-64
2022/10/23 06:26:42;;;;;;;16.02;10.55;;;11.50;99.90;;;;;;5047622;28;20040;-63
2022/10/23 06:29:07;;;;;;;16.13;10.70;;;11.50;99.90;;;;;;5046770;28;20037;-64
2022/10/23 06:31:33;;;;;;;17.77;10.82;;;11.50;99.90;;;;;;5050543;28;20051;-63
2022/10/23 06:33:59;;;;;;;14.95;10.88;;;11.60;99.90;;;;;;5048133;28;20037;-65
2022/10/23 06:36:25;;;;;;;19.55;10.70;;;11.50;99.90;;;;;;5045313;28;20041;-62
2022/10/23 06:38:51;;;;;;;15.82;10.80;;;11.50;99.90;;;;;;5042141;28;20527;-63
2022/10/23 06:41:19;;;;;;;15.20;10.60;;;11.50;99.90;;;;;;5044417;28;20030;-63
2022/10/23 06:43:50;;;;;;;19.48;11.13;;;11.50;99.90;;;;;;5045587;28;20403;-64
2022/10/23 06:46:16;;;;;;;15.90;11.32;;;11.50;99.90;;;;;;5045468;28;20033;-63
2022/10/23 06:48:42;;;;;;;16.33;10.45;;;11.60;99.90;;;;;;5051683;28;20426;-64
2022/10/23 06:51:11;;;;;;;14.90;11.10;;;11.60;99.90;;;;;;5048898;28;20052;-64
2022/10/23 06:53:37;;;;;;;17.38;11.80;;;11.60;99.90;;;;;;5049122;28;20441;-63
2022/10/23 06:56:05;;;;;;;16.20;10.88;;;11.60;99.90;;;;;;5048078;28;20119;-64
2022/10/23 06:58:32;;;;;;;19.33;10.52;;;11.60;99.90;;;;;;5041282;28;20040;-64
2022/10/23 07:01:03;;;;;;;17.35;11.82;;;11.60;99.90;;;;;;5049776;28;20040;-64
2022/10/23 07:03:28;;;;;;;16.98;11.40;;;11.50;99.90;;;;;;5053720;28;20043;-64
2022/10/23 07:05:54;;;;;;;17.35;11.07;;;11.60;99.90;;;;;;5045274;28;20033;-64
2022/10/23 07:08:20;;;;;;;16.23;11.20;;;11.60;99.90;;;;;;5047874;28;20608;-63
2022/10/23 07:10:47;;;;;;;18.90;11.27;;;11.60;99.90;;;;;;5050818;28;20037;-64
2022/10/23 07:13:12;;;;;;;17.13;11.52;;;11.60;99.90;;;;;;5041727;28;20081;-64
2022/10/23 07:15:39;;;;;;;16.92;11.23;;;11.60;99.90;;;;;;5049706;28;20068;-64
2022/10/23 07:18:05;;;;;;;18.08;11.63;;;11.60;99.90;;;;;;5040793;28;20044;-65
2022/10/23 07:20:31;;;;;;;17.85;11.48;;;11.70;99.90;;;;;;5049116;28;20079;-65
2022/10/23 07:22:57;;;;;;;22.15;11.85;;;11.70;99.90;;;;;;5049534;28;20132;-63
2022/10/23 07:25:25;;;;;;;20.95;11.30;;;11.70;99.90;;;;;;5047755;28;20477;-63
2022/10/23 07:27:51;;;;;;;17.88;11.75;;;11.70;99.90;;;;;;5048025;28;20514;-63
2022/10/23 07:30:17;;;;;;;17.08;11.60;;;11.70;99.90;;;;;;5049134;28;20037;-64
2022/10/23 07:32:43;;;;;;;18.90;11.32;;;11.70;99.90;;;;;;5049040;28;20098;-64
2022/10/23 07:35:12;;;;;;;15.13;10.57;;;11.80;99.90;;;;;;5051194;28;20454;-64
2022/10/23 07:37:37;;;;;;;19.85;11.73;;;11.80;99.90;;;;;;5048504;28;20403;-64
2022/10/23 07:40:05;;;;;;;17.27;11.32;;;11.80;99.90;;;;;;5048714;28;20866;-63
2022/10/23 07:42:31;;;;;;;18.75;11.63;;;11.80;99.90;;;;;;5046318;28;20136;-64
2022/10/23 07:44:56;;;;;;;20.98;11.80;;;11.80;99.90;;;;;;5050848;28;20127;-63
2022/10/23 07:47:23;;;;;;;20.15;11.52;;;11.90;99.90;;;;;;5044353;28;20075;-63
2022/10/23 07:49:48;;;;;;;19.45;11.20;;;11.90;99.90;;;;;;5044480;28;20045;-63
2022/10/23 07:52:14;;;;;;;16.45;11.70;;;11.90;99.90;;;;;;5049216;28;20037;-63
2022/10/23 07:54:40;;;;;;;20.38;12.27;;;12.00;99.90;;;;;;5045034;28;20040;-63
2022/10/23 07:57:06;;;;;;;15.02;11.27;;;12.00;99.90;;;;;;5045878;28;20041;-63
2022/10/23 07:59:32;;;;;;;21.48;11.13;;;12.10;99.90;;;;;;5050335;28;20033;-63
2022/10/23 08:01:58;;;;;;;17.00;11.38;;;12.10;99.90;;;;;;5037412;28;20034;-63
2022/10/23 08:04:24;;;;;;;20.55;12.15;;;12.10;99.90;;;;;;5046395;28;20068;-63
2022/10/23 08:06:50;;;;;;;15.90;12.10;;;12.10;99.90;;;;;;5041606;28;20045;-63
2022/10/23 08:09:16;;;;;;;18.92;12.77;;;12.10;99.90;;;;;;5047305;28;20037;-63
2022/10/23 08:11:42;;;;;;;17.55;11.32;;;12.10;99.90;;;;;;5045953;28;20037;-63
2022/10/23 08:14:09;;;;;;;16.23;11.68;;;12.20;99.90;;;;;;5044930;28;20098;-63
2022/10/23 08:16:36;;;;;;;16.88;11.90;;;12.20;99.90;;;;;;5049372;28;20032;-63
2022/10/23 08:19:03;;;;;;;17.05;11.13;;;12.20;99.90;;;;;;5045415;28;20033;-64
2022/10/23 08:21:28;;;;;;;19.38;12.15;;;12.20;99.90;;;;;;5048247;28;20059;-63
2022/10/23 08:23:59;;;;;;;16.10;10.93;;;12.30;99.90;;;;;;5049212;28;20124;-63
2022/10/23 08:26:28;;;;;;;17.35;11.43;;;12.30;99.90;;;;;;5044919;28;21095;-64
2022/10/23 08:28:54;;;;;;;17.08;10.85;;;12.40;99.90;;;;;;5045130;28;20051;-63
2022/10/23 08:31:21;;;;;;;17.13;10.63;;;12.40;99.90;;;;;;5044982;28;20107;-63
2022/10/23 08:33:47;;;;;;;19.08;11.73;;;12.40;99.90;;;;;;5047473;28;20037;-63
2022/10/23 08:36:15;;;;;;;14.88;11.10;;;12.40;99.90;;;;;;5047124;28;20056;-63
2022/10/23 08:38:41;;;;;;;16.73;10.98;;;12.50;99.90;;;;;;5051238;28;20037;-63
2022/10/23 08:41:24;;;;;;;16.08;11.13;;;12.60;99.90;;;;;;5045335;28;20044;-65
2022/10/23 08:44:23;;;;;;;17.45;11.35;;;12.60;99.90;;;;;;5046396;28;20398;-63
2022/10/23 08:47:07;;;;;;;17.00;11.85;;;12.60;99.90;;;;;;5044763;28;20048;-63
2022/10/23 08:49:42;;;;;;;17.05;12.00;;;12.70;99.90;;;;;;5048071;28;20037;-64
2022/10/23 08:52:38;;;;;;;18.42;11.15;;;12.70;99.90;;;;;;5044593;28;20048;-64
2022/10/23 08:55:11;;;;;;;17.45;11.88;;;12.80;99.90;;;;;;5046337;28;20048;-64
2022/10/23 08:57:44;;;;;;;17.83;10.27;;;12.90;99.90;;;;;;5048198;28;20045;-63
2022/10/23 09:00:16;;;;;;;17.15;11.50;;;12.90;99.90;;;;;;5044224;28;20439;-64
2022/10/23 09:02:45;;;;;;;17.27;10.82;;;12.90;99.90;;;;;;5029524;28;20061;-65
2022/10/23 09:05:26;;;;;;;21.00;12.10;;;13.00;99.90;;;;;;5042589;28;20412;-63
2022/10/23 09:08:16;;;;;;;16.83;11.27;;;13.00;99.90;;;;;;5041406;28;20492;-63
2022/10/23 09:10:41;;;;;;;18.08;12.00;;;13.00;99.90;;;;;;5039459;28;20577;-64
2022/10/23 09:13:13;;;;;;;17.40;12.05;;;13.00;99.90;;;;;;5045865;28;20215;-65
2022/10/23 09:15:48;;;;;;;16.73;11.20;;;13.10;99.90;;;;;;5047717;28;20115;-63
2022/10/23 09:18:15;;;;;;;16.83;10.95;;;13.10;99.90;;;;;;5047850;28;20492;-64
2022/10/23 09:20:45;;;;;;;18.55;11.98;;;13.20;99.90;;;;;;5048275;28;20510;-63
2022/10/23 09:23:22;;;;;;;16.90;11.88;;;13.20;99.90;;;;;;5058840;28;20484;-64
2022/10/23 09:25:54;;;;;;;20.08;12.10;;;13.20;99.90;;;;;;5046190;28;20162;-64
2022/10/23 09:28:22;;;;;;;19.80;11.80;;;13.20;99.90;;;;;;5047701;28;20029;-64
2022/10/23 09:30:49;;;;;;;50.67;29.35;;;13.20;99.90;;;;;;5042892;28;20045;-63
2022/10/23 09:33:21;;;;;;;34.05;20.63;;;13.20;99.90;;;;;;5042400;28;20037;-64
2022/10/23 09:36:00;;;;;;;29.08;17.20;;;13.40;99.90;;;;;;5045305;28;20040;-64
2022/10/23 09:38:27;;;;;;;24.02;15.82;;;13.40;99.90;;;;;;5045473;28;20056;-64
2022/10/23 09:40:53;;;;;;;20.85;13.95;;;13.50;99.90;;;;;;5046951;28;20046;-64
2022/10/23 09:43:24;;;;;;;19.42;12.18;;;13.50;99.90;;;;;;5041437;28;20037;-64
2022/10/23 09:46:05;;;;;;;19.88;12.07;;;13.50;99.90;;;;;;5045568;28;20264;-65
2022/10/23 09:48:31;;;;;;;16.35;11.02;;;13.60;99.90;;;;;;5048117;28;20048;-63
2022/10/23 09:51:03;;;;;;;19.77;10.43;;;13.60;99.90;;;;;;5045970;28;20111;-64
2022/10/23 09:53:31;;;;;;;17.70;11.05;;;13.60;99.90;;;;;;5045978;28;20127;-64
2022/10/23 09:56:03;;;;;;;15.10;10.27;;;13.60;99.90;;;;;;5045578;28;20037;-65
2022/10/23 09:58:51;;;;;;;19.77;10.57;;;13.60;99.90;;;;;;5040638;28;20048;-63
2022/10/23 10:01:47;;;;;;;15.77;9.45;;;13.60;99.90;;;;;;5038163;28;20037;-63
2022/10/23 10:04:13;;;;;;;14.90;9.70;;;13.70;99.90;;;;;;5033511;28;20465;-64
2022/10/23 10:06:38;;;;;;;15.93;9.52;;;13.70;99.90;;;;;;5040668;28;20408;-64
2022/10/23 10:09:25;;;;;;;19.83;9.60;;;13.80;99.90;;;;;;5047103;28;20051;-64
2022/10/23 10:11:52;;;;;;;12.57;8.50;;;13.80;99.90;;;;;;5036953;28;20167;-64
2022/10/23 10:14:46;;;;;;;16.60;9.07;;;13.90;99.90;;;;;;5038960;28;20523;-64
2022/10/23 10:17:30;;;;;;;12.27;8.45;;;14.00;99.90;;;;;;5041334;28;20121;-64
2022/10/23 10:20:14;;;;;;;11.90;8.65;;;14.00;99.90;;;;;;5042876;28;20072;-64
2022/10/23 10:22:54;;;;;;;14.30;8.60;;;14.10;99.90;;;;;;5039141;28;20040;-64
2022/10/23 10:25:29;;;;;;;13.75;8.40;;;14.10;99.90;;;;;;5042897;28;20041;-64
2022/10/23 10:28:24;;;;;;;13.02;8.45;;;14.20;99.90;;;;;;5044004;28;20056;-64
2022/10/23 10:31:22;;;;;;;14.05;8.40;;;14.20;99.90;;;;;;5024555;28;20053;-64
2022/10/23 10:34:20;;;;;;;13.27;8.98;;;14.20;99.90;;;;;;5043461;28;20041;-64
2022/10/23 10:36:53;;;;;;;12.35;8.20;;;14.30;99.90;;;;;;5040825;28;20047;-64
2022/10/23 10:39:31;;;;;;;14.13;8.07;;;14.30;99.90;;;;;;5047652;28;20032;-64
2022/10/23 10:42:06;;;;;;;13.27;7.72;;;14.30;99.90;;;;;;5048772;28;20055;-64
2022/10/23 10:44:42;;;;;;;13.05;7.97;;;14.30;99.90;;;;;;5049159;28;20037;-64
2022/10/23 10:47:24;;;;;;;15.57;7.70;;;14.30;99.90;;;;;;5042177;28;20098;-64
2022/10/23 10:50:06;;;;;;;13.90;7.28;;;14.30;99.90;;;;;;5044671;28;20083;-64
2022/10/23 10:52:59;;;;;;;11.18;7.55;;;14.30;99.90;;;;;;5045743;28;20106;-64
2022/10/23 10:55:37;;;;;;;16.98;7.38;;;14.30;99.90;;;;;;5056627;28;20041;-64
2022/10/23 10:58:26;;;;;;;12.63;7.45;;;14.30;99.90;;;;;;5045273;28;20037;-64
2022/10/23 11:00:57;;;;;;;13.52;7.70;;;14.30;99.90;;;;;;5045771;28;20130;-64
2022/10/23 11:03:40;;;;;;;12.75;7.65;;;14.20;99.90;;;;;;5041714;28;20488;-64
2022/10/23 11:06:12;;;;;;;23.20;7.55;;;14.30;99.90;;;;;;5041166;28;20041;-63
2022/10/23 11:08:39;;;;;;;21.95;7.45;;;14.30;99.90;;;;;;5047139;28;20041;-64
2022/10/23 11:11:21;;;;;;;14.18;7.53;;;14.20;99.90;;;;;;5044165;28;20131;-64
2022/10/23 11:13:48;;;;;;;;;;;14.20;99.90;;;;;;5042281;28;20076;-64
2022/10/23 11:16:25;;;;;;;12.32;7.15;;;14.20;99.90;;;;;;5046879;28;19960;-63
2022/10/23 11:19:03;;;;;;;12.52;7.10;;;14.20;99.90;;;;;;5043601;28;20037;-63
2022/10/23 11:22:01;;;;;;;13.70;6.82;;;14.20;99.90;;;;;;5042995;28;20044;-63
2022/10/23 11:24:44;;;;;;;13.70;7.70;;;14.20;99.90;;;;;;5045380;28;20037;-64
2022/10/23 11:27:17;;;;;;;10.40;6.80;;;14.30;99.90;;;;;;5038127;28;20450;-64
2022/10/23 11:30:18;;;;;;;8.73;5.82;;;14.30;99.90;;;;;;5043230;28;20041;-64
2022/10/23 11:32:50;;;;;;;11.50;6.55;;;14.30;99.90;;;;;;5045114;28;20122;-64
2022/10/23 11:35:48;;;;;;;13.02;6.70;;;14.30;99.90;;;;;;5037756;28;20048;-65
2022/10/23 11:38:25;;;;;;;10.25;6.68;;;14.40;99.90;;;;;;5034170;28;20041;-64
2022/10/23 11:41:06;;;;;;;10.13;6.22;;;14.40;99.90;;;;;;5046509;28;20499;-64
2022/10/23 11:43:56;;;;;;;9.55;5.97;;;14.40;99.90;;;;;;5045382;28;20048;-64
2022/10/23 11:46:21;;;;;;;13.02;6.18;;;14.50;99.90;;;;;;5046312;28;20162;-65
2022/10/23 11:48:48;;;;;;;14.48;5.70;;;14.50;99.90;;;;;;5037918;28;20066;-64
2022/10/23 11:51:36;;;;;;;10.63;6.65;;;14.50;99.90;;;;;;5038834;28;20148;-64
2022/10/23 11:54:12;;;;;;;13.20;7.03;;;14.50;99.90;;;;;;5048362;28;20087;-64
2022/10/23 11:56:49;;;;;;;11.55;7.03;;;14.50;99.90;;;;;;5045411;28;20197;-65
2022/10/23 11:59:33;;;;;;;9.70;6.22;;;14.50;99.90;;;;;;5061012;28;20057;-65
2022/10/23 12:02:01;;;;;;;11.45;6.70;;;14.50;99.90;;;;;;5044856;28;20422;-64
2022/10/23 12:04:39;;;;;;;11.25;5.93;;;14.60;99.90;;;;;;5040085;28;20048;-65
2022/10/23 12:07:22;;;;;;;12.23;6.07;;;14.60;99.90;;;;;;5042799;28;20049;-64
2022/10/23 12:09:52;;;;;;;9.15;5.65;;;14.60;99.90;;;;;;5043669;28;20048;-64
2022/10/23 12:12:33;;;;;;;13.07;5.95;;;14.70;99.90;;;;;;5046649;28;20072;-64
2022/10/23 12:15:14;;;;;;;15.02;6.05;;;14.60;99.90;;;;;;5050467;28;21077;-64
2022/10/23 12:17:43;;;;;;;8.90;5.35;;;14.70;99.90;;;;;;5046141;28;20395;-65
2022/10/23 12:20:12;;;;;;;11.23;4.97;;;14.80;99.90;;;;;;5046434;28;20107;-65
2022/10/23 12:22:41;;;;;;;11.23;5.10;;;14.70;99.90;;;;;;5047728;28;20033;-64
2022/10/23 12:25:27;;;;;;;10.30;4.95;;;14.80;99.90;;;;;;5048338;28;20045;-65
2022/10/23 12:28:11;;;;;;;10.02;5.40;;;14.80;99.90;;;;;;5047200;28;20045;-65
2022/10/23 12:31:09;;;;;;;13.55;4.75;;;14.80;99.90;;;;;;5046231;28;20041;-65
2022/10/23 12:33:45;;;;;;;11.85;5.32;;;14.70;99.90;;;;;;5008732;28;20049;-64
2022/10/23 12:36:43;;;;;;;10.20;4.97;;;14.80;99.90;;;;;;5047659;28;20163;-64
2022/10/23 12:39:32;;;;;;;13.82;5.63;;;14.80;99.90;;;;;;5044474;28;20048;-65
2022/10/23 12:41:59;;;;;;;10.52;5.20;;;14.70;99.90;;;;;;5048234;28;20037;-64
2022/10/23 12:44:26;;;;;;;8.38;5.00;;;14.70;99.90;;;;;;5026744;28;20467;-64
2022/10/23 12:47:02;;;;;;;10.95;4.88;;;14.80;99.90;;;;;;5034928;28;20527;-64
2022/10/23 12:49:32;;;;;;;10.25;4.80;;;14.70;99.90;;;;;;5043866;28;20396;-64
2022/10/23 12:52:05;;;;;;;11.32;5.10;;;14.70;99.90;;;;;;5039003;28;20041;-64